Time;durP1;ratioP1;P1;durP2;ratioP2;P2;SDS_P1;SDS_P2;PMS_P1;PMS_P2;Temp;Humidity;BMP_temperature;BMP_pressure;BME280_temperature;BME280_humidity;BME280_pressure;Samples;Min_cycle;Max_cycle;Signal;HPM_P1;HPM_P2
2023/01/04 00:01:02;;;;;;;10.00;8.43;;;;;;;3.63;100.00;152297.63;4989533;28;20420;-77
2023/01/04 00:03:48;;;;;;;10.70;8.50;;;;;;;3.62;100.00;152295.06;4996022;28;21416;-77
2023/01/04 00:06:34;;;;;;;12.80;9.10;;;;;;;3.57;100.00;152282.16;4992256;28;20943;-77
2023/01/04 00:09:19;;;;;;;9.70;7.87;;;;;;;3.58;100.00;152284.75;5004521;28;20467;-77
2023/01/04 00:12:05;;;;;;;8.90;7.73;;;;;;;3.63;100.00;152296.31;5006873;28;20854;-77
2023/01/04 00:14:51;;;;;;;9.90;8.50;;;;;;;3.61;100.00;152292.47;5002185;28;20950;-77
2023/01/04 00:17:36;;;;;;;9.57;8.40;;;;;;;3.63;100.00;152297.63;5012033;28;20487;-77
2023/01/04 00:20:23;;;;;;;12.50;9.10;;;;;;;3.60;100.00;152289.88;4993938;28;20413;-77
2023/01/04 00:23:08;;;;;;;8.93;8.00;;;;;;;3.55;100.00;152277.03;4995475;28;20492;-77
2023/01/04 00:25:54;;;;;;;9.87;8.90;;;;;;;3.55;100.00;152277.03;4992151;28;20512;-77
2023/01/04 00:28:40;;;;;;;10.67;8.73;;;;;;;3.54;100.00;152274.47;4996928;28;20457;-77
2023/01/04 00:31:26;;;;;;;9.77;8.20;;;;;;;3.51;100.00;152266.75;4996608;28;20440;-77
2023/01/04 00:34:13;;;;;;;9.60;8.33;;;;;;;3.56;100.00;152279.63;4991305;28;20575;-77
2023/01/04 00:37:00;;;;;;;9.50;7.47;;;;;;;3.55;100.00;152275.72;4984800;28;20430;-77
2023/01/04 00:39:45;;;;;;;9.53;8.60;;;;;;;3.50;100.00;152262.84;4997793;28;20447;-77
2023/01/04 00:42:31;;;;;;;9.50;8.50;;;;;;;3.49;100.00;152261.59;4996671;28;20512;-77
2023/01/04 00:45:16;;;;;;;10.57;8.13;;;;;;;3.48;100.00;152259.00;4983182;28;20460;-77
2023/01/04 00:48:02;;;;;;;10.30;8.40;;;;;;;3.43;100.00;152244.84;4992853;28;20773;-77
2023/01/04 00:50:48;;;;;;;9.07;7.87;;;;;;;3.39;100.00;152235.81;4978447;28;20446;-77
2023/01/04 00:53:34;;;;;;;10.20;8.57;;;;;;;3.44;100.00;152247.44;4987188;28;20818;-77
2023/01/04 00:56:20;;;;;;;13.10;8.73;;;;;;;3.43;100.00;152246.16;4978336;28;20445;-77
2023/01/04 00:59:05;;;;;;;11.53;8.33;;;;;;;3.41;100.00;152239.72;5006358;28;20924;-77
2023/01/04 01:01:51;;;;;;;9.60;7.70;;;;;;;3.38;100.00;152233.28;4993031;28;20397;-77
2023/01/04 01:04:36;;;;;;;8.97;8.03;;;;;;;3.33;100.00;152220.41;4993628;28;20476;-77
2023/01/04 01:07:21;;;;;;;8.63;7.73;;;;;;;3.32;100.00;152216.53;4994868;28;20547;-77
2023/01/04 01:10:08;;;;;;;10.43;8.50;;;;;;;3.30;100.00;152211.41;5003341;28;20512;-77
2023/01/04 01:12:54;;;;;;;10.17;8.00;;;;;;;3.29;100.00;152210.09;4992422;28;20461;-77
2023/01/04 01:15:39;;;;;;;10.93;8.27;;;;;;;3.26;100.00;152202.38;4979197;28;20448;-77
2023/01/04 01:18:25;;;;;;;9.00;7.30;;;;;;;3.28;100.00;152207.56;4995742;28;20539;-77
2023/01/04 01:21:12;;;;;;;9.97;7.33;;;;;;;3.30;100.00;152211.41;4992334;28;20457;-77
2023/01/04 01:23:58;;;;;;;8.50;7.30;;;;;;;3.26;100.00;152202.38;4992265;28;20412;-77
2023/01/04 01:26:45;;;;;;;11.50;8.50;;;;;;;3.27;100.00;152204.97;5001449;28;20449;-77
2023/01/04 01:29:30;;;;;;;11.47;8.30;;;;;;;3.25;100.00;152199.81;4992639;28;20500;-77
2023/01/04 01:32:15;;;;;;;9.03;7.50;;;;;;;3.24;100.00;152195.94;4995842;28;20439;-77
2023/01/04 01:35:01;;;;;;;9.83;7.10;;;;;;;3.21;100.00;152189.50;4995051;28;20472;-77
2023/01/04 01:37:46;;;;;;;11.07;8.00;;;;;;;3.22;100.00;152190.81;4988711;28;20520;-77
2023/01/04 01:40:32;;;;;;;7.67;6.73;;;;;;;3.15;100.00;152174.03;4997328;28;20448;-77
2023/01/04 01:43:20;;;;;;;9.90;7.50;;;;;;;3.12;100.00;152165.06;5005009;28;20498;-77
2023/01/04 01:46:05;;;;;;;8.07;6.73;;;;;;;3.09;100.00;152158.66;4988479;28;20958;-77
2023/01/04 01:48:52;;;;;;;8.27;7.10;;;;;;;3.03;100.00;152143.19;4984993;28;20442;-77
2023/01/04 01:51:38;;;;;;;9.57;7.90;;;;;;;3.02;100.00;152140.59;4986137;28;20993;-77
2023/01/04 01:54:26;;;;;;;11.80;8.00;;;;;;;3.02;100.00;152140.59;4991487;28;21042;-77
2023/01/04 01:57:17;;;;;;;10.50;7.97;;;;;;;2.96;100.00;152125.19;4988614;28;20445;-77
2023/01/04 02:00:07;;;;;;;10.57;8.03;;;;;;;2.93;100.00;152118.75;4982363;28;20448;-77
2023/01/04 02:03:10;;;;;;;8.57;6.63;;;;;;;2.92;100.00;152114.88;4983784;28;20452;-77
2023/01/04 02:05:55;;;;;;;11.23;8.10;;;;;;;2.89;100.00;152108.44;4991579;28;20460;-77
2023/01/04 02:08:42;;;;;;;12.33;8.00;;;;;;;2.91;100.00;152112.34;4986736;28;21033;-83
2023/01/04 02:11:27;;;;;;;9.10;6.97;;;;;;;2.92;100.00;152114.88;4995701;28;20564;-83
2023/01/04 02:14:28;;;;;;;10.37;7.60;;;;;;;2.91;100.00;152113.56;4981050;28;20903;-83
2023/01/04 02:17:19;;;;;;;8.90;7.10;;;;;;;2.87;100.00;152103.31;4984394;28;21058;-83
2023/01/04 02:20:29;;;;;;;9.70;6.83;;;;;;;2.91;100.00;152112.34;5011138;28;20596;-82
2023/01/04 02:23:28;;;;;;;9.37;7.20;;;;;;;2.92;100.00;152116.16;4994460;28;20436;-82
2023/01/04 02:26:47;;;;;;;8.77;6.57;;;;;;;2.94;100.00;152121.31;4999067;28;20665;-82
2023/01/04 02:30:05;;;;;;;15.80;8.47;;;;;;;2.88;100.00;152104.59;4999038;28;20452;-83
2023/01/04 02:33:03;;;;;;;9.90;6.50;;;;;;;2.89;100.00;152108.44;4988593;28;20465;-83
2023/01/04 02:35:55;;;;;;;8.20;6.87;;;;;;;2.86;100.00;152099.47;5003254;28;20522;-82
2023/01/04 02:38:49;;;;;;;9.67;6.87;;;;;;;2.90;100.00;152109.75;5005497;28;20428;-83
2023/01/04 02:41:41;;;;;;;8.47;6.30;;;;;;;2.87;100.00;152102.00;4979561;28;20533;-83
2023/01/04 02:50:51;;;;;;;7.03;5.93;;;;;;;2.92;100.00;152114.88;4995881;28;20979;-83
2023/01/04 02:53:38;;;;;;;6.83;5.10;;;;;;;3.02;100.00;152140.59;4985354;28;20503;-83
2023/01/04 02:56:35;;;;;;;6.57;5.33;;;;;;;3.02;100.00;152141.91;4996254;28;20460;-82
2023/01/04 02:59:31;;;;;;;8.60;6.20;;;;;;;3.04;100.00;152147.03;4977073;28;20448;-82
2023/01/04 03:08:40;;;;;;;7.33;5.03;;;;;;;3.08;100.00;152157.34;4993553;28;20449;-83
2023/01/04 03:14:38;;;;;;;8.70;5.63;;;;;;;3.03;100.00;152143.19;5008280;28;20789;-82
2023/01/04 03:17:24;;;;;;;8.47;6.10;;;;;;;3.03;100.00;152143.19;4983375;28;20977;-82
2023/01/04 03:20:11;;;;;;;8.50;6.00;;;;;;;3.07;100.00;152153.50;5000509;28;20495;-83
2023/01/04 03:35:37;;;;;;;7.00;5.37;;;;;;;3.08;100.00;152156.06;4995812;28;21083;-82
2023/01/04 03:50:56;;;;;;;7.10;4.80;;;;;;;3.04;100.00;152145.78;5008144;28;20577;-83
2023/01/04 03:53:50;;;;;;;6.30;4.80;;;;;;;3.03;100.00;152143.19;4995768;28;20460;-82
2023/01/04 03:56:42;;;;;;;5.97;4.40;;;;;;;3.00;100.00;152135.47;5002903;28;20504;-83
2023/01/04 03:59:30;;;;;;;6.53;4.63;;;;;;;3.06;100.00;152150.91;5005039;28;20440;-82
2023/01/04 04:02:17;;;;;;;7.20;4.63;;;;;;;3.04;100.00;152145.78;4991448;28;20441;-82
2023/01/04 04:08:27;;;;;;;4.80;4.00;;;;;;;3.05;100.00;152148.31;5001103;28;20962;-82
2023/01/04 04:11:30;;;;;;;5.03;4.33;;;;;;;3.08;100.00;152157.34;4982162;28;20909;-82
2023/01/04 04:14:17;;;;;;;5.17;3.80;;;;;;;3.13;100.00;152168.91;5000975;28;20537;-82
2023/01/04 04:17:02;;;;;;;4.30;3.40;;;;;;;3.18;100.00;152181.78;5002648;28;20448;-82
2023/01/04 04:19:48;;;;;;;5.60;3.57;;;;;;;3.23;100.00;152194.63;4993453;28;20440;-82
2023/01/04 04:22:33;;;;;;;3.80;3.30;;;;;;;3.31;100.00;152215.22;4988388;28;20528;-83
2023/01/04 04:25:18;;;;;;;4.20;3.43;;;;;;;3.35;100.00;152225.56;4989071;28;20510;-82
2023/01/04 04:28:05;;;;;;;4.90;3.53;;;;;;;3.43;100.00;152244.84;4993793;28;20770;-82
2023/01/04 04:30:52;;;;;;;5.23;3.53;;;;;;;3.47;100.00;152255.13;4993713;28;20452;-82
2023/01/04 04:33:37;;;;;;;4.33;3.20;;;;;;;3.54;100.00;152273.19;5000468;28;20459;-82
2023/01/04 04:36:22;;;;;;;4.43;3.20;;;;;;;3.58;100.00;152284.75;5008870;28;20931;-82
2023/01/04 04:39:08;;;;;;;5.67;3.47;;;;;;;3.57;100.00;152282.16;4992991;28;20441;-82
2023/01/04 04:41:52;;;;;;;5.13;3.77;;;;;;;3.61;100.00;152291.19;4996507;28;20449;-82
2023/01/04 04:44:38;;;;;;;4.10;3.53;;;;;;;3.63;100.00;152297.63;5003903;28;20806;-82
2023/01/04 04:47:24;;;;;;;4.87;3.60;;;;;;;3.67;100.00;152306.66;4973080;28;20446;-83
2023/01/04 04:50:10;;;;;;;6.30;3.50;;;;;;;3.67;100.00;152307.94;4991452;28;20461;-82
2023/01/04 04:52:55;;;;;;;4.00;3.53;;;;;;;3.67;100.00;152306.66;4995628;28;20465;-82
2023/01/04 04:55:41;;;;;;;4.17;3.30;;;;;;;3.69;100.00;152313.09;4996784;28;20972;-82
2023/01/04 04:58:27;;;;;;;5.10;3.17;;;;;;;3.75;100.00;152325.94;4995761;28;20459;-83
2023/01/04 05:01:12;;;;;;;4.37;3.23;;;;;;;3.78;100.00;152333.69;5000983;28;20451;-82
2023/01/04 05:03:59;;;;;;;5.00;3.50;;;;;;;3.80;100.00;152338.81;4993223;28;20433;-83
2023/01/04 05:06:45;;;;;;;4.77;3.07;;;;;;;3.84;100.00;152349.16;4993039;28;20452;-82
2023/01/04 05:09:30;;;;;;;4.73;3.67;;;;;;;3.88;100.00;152360.72;4993030;28;20943;-82
2023/01/04 05:15:18;;;;;;;3.60;2.90;;;;;;;3.91;100.00;152368.47;4993035;28;20468;-82
2023/01/04 05:18:05;;;;;;;4.43;3.33;;;;;;;3.95;100.00;152377.44;5001778;28;20429;-83
2023/01/04 05:20:52;;;;;;;3.67;3.27;;;;;;;4.01;100.00;152394.19;4992824;28;20543;-83
2023/01/04 05:23:37;;;;;;;4.50;3.40;;;;;;;4.02;100.00;152396.78;4974350;28;20549;-83
2023/01/04 05:26:22;;;;;;;3.83;3.50;;;;;;;4.09;100.00;152413.50;5021713;28;20478;-83
2023/01/04 05:30:49;;;;;;;3.50;2.63;;;;;;;4.13;100.00;152423.84;4990953;28;20440;-82
2023/01/04 05:32:12;;;;;;;3.73;2.87;;;;;;;4.17;100.00;152435.41;5004431;28;20428;-83
2023/01/04 05:34:58;;;;;;;4.17;2.67;;;;;;;4.23;100.00;152449.59;4991851;28;20485;-83
2023/01/04 05:37:45;;;;;;;4.10;3.03;;;;;;;4.23;100.00;152449.59;4989679;28;20539;-83
2023/01/04 05:40:30;;;;;;;4.13;2.73;;;;;;;4.25;100.00;152454.72;4990585;28;20449;-83
2023/01/04 05:43:16;;;;;;;4.40;3.20;;;;;;;4.31;100.00;152470.19;4993236;28;21051;-83
2023/01/04 05:46:02;;;;;;;3.97;2.57;;;;;;;4.33;100.00;152475.34;4989932;28;20487;-82
2023/01/04 05:48:47;;;;;;;4.37;3.30;;;;;;;4.34;100.00;152477.94;4985077;28;20445;-83
2023/01/04 05:51:32;;;;;;;3.90;2.70;;;;;;;4.33;100.00;152475.34;4983282;28;20458;-83
2023/01/04 05:54:19;;;;;;;2.90;2.60;;;;;;;4.34;100.00;152477.94;4992455;28;20808;-82
2023/01/04 05:57:05;;;;;;;3.83;2.73;;;;;;;4.39;100.00;152489.50;4992491;28;20417;-83
2023/01/04 05:59:51;;;;;;;3.67;2.90;;;;;;;4.45;100.00;152504.97;4992920;28;20923;-82
2023/01/04 06:02:36;;;;;;;3.03;2.53;;;;;;;4.50;100.00;152519.09;4990956;28;20440;-83
2023/01/04 06:05:22;;;;;;;5.97;2.70;;;;;;;4.51;100.00;152521.69;4983047;28;20453;-83
2023/01/04 06:08:07;;;;;;;3.70;2.87;;;;;;;4.53;100.00;152526.84;4982174;28;20456;-82
2023/01/04 06:10:54;;;;;;;3.63;2.90;;;;;;;4.64;100.00;152555.19;4980082;28;20826;-82
2023/01/04 06:13:40;;;;;;;3.67;3.30;;;;;;;4.57;100.00;152535.88;4980771;28;20834;-82
2023/01/04 06:16:25;;;;;;;3.20;2.70;;;;;;;4.55;100.00;152530.72;4978933;28;20461;-82
2023/01/04 06:19:11;;;;;;;3.60;2.60;;;;;;;4.57;100.00;152537.19;4983333;28;20446;-83
2023/01/04 06:21:56;;;;;;;4.17;2.60;;;;;;;4.63;100.00;152552.59;4982990;28;20460;-82
2023/01/04 06:24:42;;;;;;;3.40;2.63;;;;;;;4.59;100.00;152542.31;4980318;28;20444;-83
2023/01/04 06:27:29;;;;;;;3.80;2.93;;;;;;;4.66;100.00;152559.09;4982736;28;20449;-83
2023/01/04 06:30:14;;;;;;;4.10;2.73;;;;;;;4.66;100.00;152560.34;4979308;28;20500;-83
2023/01/04 06:33:00;;;;;;;5.03;2.47;;;;;;;4.74;100.00;152580.97;4980772;28;20456;-82
2023/01/04 06:35:52;;;;;;;3.90;2.67;;;;;;;4.76;100.00;152586.16;4977590;28;20640;-83
2023/01/04 06:38:38;;;;;;;2.80;2.50;;;;;;;4.72;100.00;152575.81;4984193;28;20536;-83
2023/01/04 06:41:24;;;;;;;3.30;2.50;;;;;;;4.71;100.00;152573.22;4979622;28;20545;-82
2023/01/04 06:44:11;;;;;;;5.17;3.20;;;;;;;4.72;100.00;152575.81;4981766;28;20445;-82
2023/01/04 06:46:56;;;;;;;4.17;3.20;;;;;;;4.75;100.00;152583.56;4979214;28;20496;-82
2023/01/04 06:49:42;;;;;;;4.03;2.80;;;;;;;4.73;100.00;152578.41;4979581;28;20967;-83
2023/01/04 06:52:27;;;;;;;3.73;2.73;;;;;;;4.77;100.00;152588.69;4981552;28;20964;-83
2023/01/04 06:55:13;;;;;;;4.53;3.00;;;;;;;4.78;100.00;152590.00;4980469;28;20514;-83
2023/01/04 06:57:58;;;;;;;3.07;2.77;;;;;;;4.80;100.00;152596.44;4991972;28;20453;-82
2023/01/04 07:00:46;;;;;;;4.77;2.87;;;;;;;4.82;100.00;152600.28;4984006;28;20437;-82
2023/01/04 07:03:31;;;;;;;3.47;2.50;;;;;;;4.82;100.00;152601.56;4986758;28;20456;-82
2023/01/04 07:06:17;;;;;;;3.30;2.57;;;;;;;4.86;100.00;152610.63;4978118;28;20970;-82
2023/01/04 07:09:02;;;;;;;3.27;2.73;;;;;;;4.82;100.00;152600.28;4993143;28;20524;-82
2023/01/04 07:11:47;;;;;;;4.17;3.33;;;;;;;4.79;100.00;152593.84;4981745;28;20808;-83
2023/01/04 07:14:33;;;;;;;4.03;2.47;;;;;;;4.81;100.00;152597.72;4980694;28;20833;-82
2023/01/04 07:17:20;;;;;;;3.33;2.90;;;;;;;4.82;100.00;152601.56;4982416;28;20856;-82
2023/01/04 07:20:06;;;;;;;4.80;3.73;;;;;;;4.84;100.00;152606.72;4984925;28;20588;-82
2023/01/04 07:22:52;;;;;;;5.00;3.60;;;;;;;4.91;100.00;152623.50;4983755;28;20455;-83
2023/01/04 07:25:37;;;;;;;5.57;2.93;;;;;;;4.94;100.00;152631.22;4983279;28;20543;-83
2023/01/04 07:31:24;;;;;;;2.77;2.40;;;;;;;5.02;100.00;152650.56;4980269;28;20519;-82
2023/01/04 07:34:12;;;;;;;3.60;2.50;;;;;;;5.04;100.00;152655.69;4984264;28;20568;-83
2023/01/04 07:36:57;;;;;;;2.80;2.37;;;;;;;5.08;100.00;152667.34;4982872;28;20777;-83
2023/01/04 07:39:43;;;;;;;2.50;2.30;;;;;;;5.05;100.00;152658.31;4984947;28;21070;-83
2023/01/04 07:42:29;;;;;;;2.40;1.93;;;;;;;5.05;100.00;152659.59;4984734;28;20456;-82
2023/01/04 07:45:14;;;;;;;3.00;2.10;;;;;;;5.10;100.00;152672.47;4985448;28;20788;-82
2023/01/04 07:48:00;;;;;;;2.60;2.37;;;;;;;5.16;100.00;152686.66;4983269;28;20456;-82
2023/01/04 07:50:47;;;;;;;2.17;1.87;;;;;;;5.18;100.00;152691.81;4983411;28;20920;-82
2023/01/04 07:53:33;;;;;;;3.17;2.03;;;;;;;5.15;100.00;152684.06;4983898;28;20456;-83
2023/01/04 07:56:18;;;;;;;3.17;2.47;;;;;;;5.15;100.00;152684.06;4983762;28;20446;-83
2023/01/04 07:59:05;;;;;;;1.40;1.27;;;;;;;5.16;100.00;152687.97;4987524;28;20472;-83
2023/01/04 08:01:51;;;;;;;2.23;1.80;;;;;;;5.18;100.00;152693.09;4985229;28;20551;-83
2023/01/04 08:04:36;;;;;;;3.27;1.50;;;;;;;5.21;100.00;152699.56;4991841;28;20461;-83
2023/01/04 08:07:23;;;;;;;2.47;1.87;;;;;;;5.19;100.00;152695.66;4982488;28;20979;-83
2023/01/04 08:10:09;;;;;;;2.07;1.20;;;;;;;5.19;100.00;152694.41;4996748;28;20441;-83
2023/01/04 08:12:54;;;;;;;2.50;1.50;;;;;;;5.18;100.00;152693.09;4982028;28;20511;-83
2023/01/04 08:15:40;;;;;;;2.80;2.10;;;;;;;5.17;100.00;152689.22;4981903;28;20460;-83
2023/01/04 08:18:25;;;;;;;3.53;1.60;;;;;;;5.17;100.00;152689.22;4983037;28;20476;-83
2023/01/04 08:21:10;;;;;;;1.90;1.40;;;;;;;5.23;100.00;152704.69;4980047;28;20864;-83
2023/01/04 08:23:58;;;;;;;2.03;1.63;;;;;;;5.25;100.00;152709.84;4982335;28;20441;-83
2023/01/04 08:26:44;;;;;;;4.90;1.67;;;;;;;5.24;100.00;152707.28;4981811;28;20627;-83
2023/01/04 08:29:30;;;;;;;5.57;1.93;;;;;;;5.28;100.00;152717.59;4985192;28;20438;-83
2023/01/04 08:32:15;;;;;;;4.20;1.53;;;;;;;5.34;100.00;152733.06;4991665;28;20524;-83
2023/01/04 08:35:01;;;;;;;2.07;1.67;;;;;;;5.31;100.00;152726.63;4982842;28;20492;-83
2023/01/04 08:37:50;;;;;;;1.97;1.60;;;;;;;5.34;100.00;152734.38;4980896;28;20446;-83
2023/01/04 08:40:36;;;;;;;2.43;2.00;;;;;;;5.33;100.00;152731.78;4991983;28;20548;-83
2023/01/04 08:43:22;;;;;;;4.00;2.03;;;;;;;5.32;100.00;152727.91;4981315;28;20462;-83
2023/01/04 08:46:07;;;;;;;2.60;1.40;;;;;;;5.31;100.00;152725.31;4982642;28;20783;-83
2023/01/04 08:48:53;;;;;;;3.30;1.93;;;;;;;5.31;100.00;152725.31;4981353;28;20433;-83
2023/01/04 08:51:38;;;;;;;2.13;1.63;;;;;;;5.35;100.00;152736.91;4981296;28;20519;-83
2023/01/04 08:54:24;;;;;;;1.63;1.53;;;;;;;5.37;100.00;152742.09;4983145;28;20465;-83
2023/01/04 08:57:11;;;;;;;2.40;1.73;;;;;;;5.41;100.00;152751.09;4982384;28;20576;-83
2023/01/04 08:59:56;;;;;;;5.07;2.10;;;;;;;5.46;100.00;152764.00;4980062;28;20484;-82
2023/01/04 09:02:41;;;;;;;3.53;2.00;;;;;;;5.47;100.00;152766.59;4979276;28;20445;-83
2023/01/04 09:05:27;;;;;;;3.63;1.77;;;;;;;5.55;100.00;152787.22;4981198;28;20452;-83
2023/01/04 09:08:13;;;;;;;1.80;1.50;;;;;;;5.53;100.00;152783.31;4981250;28;20605;-82
2023/01/04 09:10:58;;;;;;;2.03;1.47;;;;;;;5.53;100.00;152782.06;4981142;28;20487;-83
2023/01/04 09:13:45;;;;;;;1.50;1.17;;;;;;;5.63;100.00;152807.84;4982126;28;20507;-82
2023/01/04 09:16:30;;;;;;;1.50;1.03;;;;;;;5.68;100.00;152819.44;4980086;28;20505;-83
2023/01/04 09:19:16;;;;;;;1.87;1.50;;;;;;;5.71;100.00;152828.47;4983369;28;20983;-83
2023/01/04 09:22:01;;;;;;;1.77;1.33;;;;;;;5.75;100.00;152837.47;4980497;28;20540;-83
2023/01/04 09:24:47;;;;;;;1.70;1.17;;;;;;;5.76;100.00;152841.38;4984594;28;20448;-83
2023/01/04 09:27:33;;;;;;;2.93;1.37;;;;;;;5.75;100.00;152838.78;4986385;28;20850;-78
2023/01/04 09:30:19;;;;;;;2.00;1.20;;;;;;;5.84;100.00;152862.00;4981592;28;21003;-78
2023/01/04 09:33:05;;;;;;;2.73;0.87;;;;;;;5.83;100.00;152859.41;4983683;28;20963;-78
2023/01/04 09:35:50;;;;;;;1.30;0.90;;;;;;;5.90;100.00;152877.56;5000168;28;20991;-78
2023/01/04 09:38:36;;;;;;;1.23;1.00;;;;;;;5.95;100.00;152889.16;4980955;28;20457;-78
2023/01/04 09:41:25;;;;;;;1.27;1.07;;;;;;;6.03;100.00;152911.09;4979155;28;20457;-78
2023/01/04 09:44:18;;;;;;;1.30;1.00;;;;;;;6.04;100.00;152913.63;4981972;28;20476;-78
2023/01/04 09:47:07;;;;;;;2.77;0.83;;;;;;;6.13;100.00;152936.88;4978880;28;20441;-78
2023/01/04 09:49:55;;;;;;;1.83;1.00;;;;;;;6.17;100.00;152944.63;4979464;28;20504;-78
2023/01/04 09:52:48;;;;;;;2.13;1.03;;;;;;;6.20;100.00;152952.31;4978977;28;20512;-78
2023/01/04 09:55:37;;;;;;;1.97;1.10;;;;;;;6.21;100.00;152954.94;4985150;28;20465;-78
2023/01/04 09:58:26;;;;;;;1.27;0.80;;;;;;;6.23;100.00;152961.38;4978592;28;20929;-78
2023/01/04 10:01:15;;;;;;;1.90;0.80;;;;;;;6.25;100.00;152965.28;4981120;28;20450;-78
2023/01/04 10:04:05;;;;;;;2.17;1.10;;;;;;;6.26;100.00;152967.81;4980256;28;20478;-79
2023/01/04 10:06:52;;;;;;;1.10;0.80;;;;;;;6.27;100.00;152971.72;4991793;28;20838;-78
2023/01/04 10:09:37;;;;;;;1.10;0.80;;;;;;;6.35;100.00;152991.06;4983995;28;20516;-78
2023/01/04 10:12:34;;;;;;;2.47;1.07;;;;;;;6.33;100.00;152985.91;4982349;28;20520;-78
2023/01/04 10:15:30;;;;;;;1.20;0.80;;;;;;;6.42;100.00;153010.41;4997066;28;20501;-78
2023/01/04 10:18:20;;;;;;;2.03;1.03;;;;;;;6.44;100.00;153014.28;4979802;28;20914;-79
2023/01/04 10:21:21;;;;;;;3.40;0.90;;;;;;;6.43;100.00;153011.72;4982546;28;20446;-78
2023/01/04 10:24:28;;;;;;;3.87;1.03;;;;;;;6.46;100.00;153020.72;4980900;28;20608;-79
2023/01/04 10:27:21;;;;;;;1.73;1.00;;;;;;;6.56;100.00;153046.56;4979440;28;21011;-79
2023/01/04 10:30:20;;;;;;;2.80;0.90;;;;;;;6.56;100.00;153046.56;4982922;28;20465;-79
2023/01/04 10:33:11;;;;;;;1.00;0.70;;;;;;;6.58;100.00;153050.41;4984762;28;20631;-78
2023/01/04 10:35:56;;;;;;;1.43;0.93;;;;;;;6.55;100.00;153042.66;4978138;28;20481;-78
2023/01/04 10:38:43;;;;;;;1.63;1.07;;;;;;;6.62;100.00;153060.72;4980713;28;20882;-79
2023/01/04 10:41:33;;;;;;;1.80;1.23;;;;;;;6.72;99.68;153086.56;4986813;28;20444;-79
2023/01/04 10:44:24;;;;;;;1.30;0.90;;;;;;;6.66;100.00;153071.06;4980286;28;21017;-79
2023/01/04 10:47:13;;;;;;;1.47;0.83;;;;;;;6.74;100.00;153091.72;4981818;28;20565;-79
2023/01/04 10:50:01;;;;;;;1.50;0.87;;;;;;;6.70;100.00;153081.38;5001624;28;20441;-79
2023/01/04 10:52:51;;;;;;;1.53;1.20;;;;;;;6.77;99.10;153099.47;4991486;28;20473;-79
2023/01/04 10:55:40;;;;;;;1.53;0.80;;;;;;;6.84;100.00;153116.22;4987533;28;20466;-79
2023/01/04 10:58:31;;;;;;;1.63;1.07;;;;;;;6.85;99.62;153120.13;4983597;28;20452;-78
2023/01/04 11:01:19;;;;;;;1.40;1.00;;;;;;;6.93;99.11;153140.78;4984450;28;20585;-79
2023/01/04 11:04:10;;;;;;;1.70;1.10;;;;;;;6.91;100.00;153135.59;4996092;28;20920;-78
2023/01/04 11:07:00;;;;;;;2.13;1.40;;;;;;;6.96;99.68;153148.53;4983272;28;20441;-79
2023/01/04 11:09:49;;;;;;;1.63;1.00;;;;;;;6.99;100.00;153156.25;4996811;28;21029;-79
2023/01/04 11:12:36;;;;;;;1.10;0.60;;;;;;;7.03;100.00;153166.59;4984810;28;20441;-79
2023/01/04 11:15:21;;;;;;;1.70;1.00;;;;;;;7.06;99.96;153174.34;4982456;28;20469;-79
2023/01/04 11:18:07;;;;;;;1.63;1.10;;;;;;;7.09;100.00;153182.09;4987591;28;20952;-79
2023/01/04 11:20:53;;;;;;;1.70;1.17;;;;;;;7.16;99.20;153200.16;4982613;28;20508;-79
2023/01/04 11:23:38;;;;;;;2.10;1.40;;;;;;;7.19;100.00;153206.63;4985493;28;20457;-79
2023/01/04 11:26:28;;;;;;;1.93;1.10;;;;;;;7.29;99.22;153233.72;4991383;28;20520;-79
2023/01/04 11:29:27;;;;;;;2.30;1.10;;;;;;;7.31;98.89;153238.88;4982770;28;21027;-79
2023/01/04 11:32:16;;;;;;;2.33;1.17;;;;;;;7.36;99.08;153251.78;4982362;28;20951;-79
2023/01/04 11:35:01;;;;;;;1.80;0.97;;;;;;;7.28;100.00;153231.13;4983589;28;20608;-79
2023/01/04 11:37:46;;;;;;;3.47;1.00;;;;;;;7.33;99.63;153244.03;4983282;28;20568;-79
2023/01/04 11:40:32;;;;;;;1.63;1.27;;;;;;;7.40;98.23;153259.53;4982233;28;20442;-79
2023/01/04 11:43:19;;;;;;;3.10;0.90;;;;;;;7.46;98.19;153275.06;4983634;28;20445;-79
2023/01/04 11:46:08;;;;;;;3.27;1.10;;;;;;;7.41;98.66;153263.44;4984266;28;20435;-79
2023/01/04 11:48:54;;;;;;;2.10;1.27;;;;;;;7.46;97.71;153276.34;4985113;28;20457;-79
2023/01/04 11:51:40;;;;;;;1.73;1.20;;;;;;;7.54;97.77;153295.72;4984567;28;20789;-79
2023/01/04 11:54:25;;;;;;;1.90;0.90;;;;;;;7.59;97.35;153308.63;4985847;28;20501;-79
2023/01/04 11:57:18;;;;;;;1.43;0.80;;;;;;;7.53;98.17;153294.44;4982071;28;20805;-79
2023/01/04 12:00:13;;;;;;;1.83;1.03;;;;;;;7.50;98.31;153285.38;4983406;28;20465;-79
2023/01/04 12:03:12;;;;;;;1.37;0.80;;;;;;;7.59;97.82;153308.63;4984014;28;20454;-78
2023/01/04 12:05:58;;;;;;;1.60;0.80;;;;;;;7.58;97.58;153306.03;4980821;28;20528;-79
2023/01/04 12:08:43;;;;;;;1.27;0.63;;;;;;;7.64;99.13;153322.84;4982184;28;20465;-79
2023/01/04 12:11:30;;;;;;;2.03;1.30;;;;;;;7.59;98.95;153308.63;4982885;28;20563;-79
2023/01/04 12:14:20;;;;;;;2.50;1.27;;;;;;;7.63;98.28;153318.94;4994641;28;20450;-79
2023/01/04 12:17:11;;;;;;;1.20;0.87;;;;;;;7.66;97.72;153328.00;4984526;28;20674;-79
2023/01/04 12:19:59;;;;;;;1.97;1.27;;;;;;;7.67;97.96;153330.59;4983749;28;20435;-79
2023/01/04 12:22:44;;;;;;;1.77;1.33;;;;;;;7.69;98.46;153335.75;4982937;28;20481;-79
2023/01/04 12:25:34;;;;;;;1.50;1.00;;;;;;;7.70;97.97;153337.06;4982420;28;20450;-79
2023/01/04 12:28:33;;;;;;;1.67;1.20;;;;;;;7.77;97.81;153356.44;4981681;28;20453;-79
2023/01/04 12:31:28;;;;;;;1.63;1.13;;;;;;;7.79;97.84;153361.59;4982063;28;20536;-79
2023/01/04 12:34:39;;;;;;;1.50;1.10;;;;;;;7.78;98.33;153358.97;4982535;28;20493;-79
2023/01/04 12:37:48;;;;;;;1.83;1.20;;;;;;;7.83;98.23;153371.94;4981778;28;20460;-79
2023/01/04 12:40:52;;;;;;;1.83;1.30;;;;;;;7.87;99.82;153380.97;4981223;28;20562;-79
2023/01/04 12:43:38;;;;;;;1.50;1.00;;;;;;;7.86;99.11;153379.66;4986364;28;20585;-78
2023/01/04 12:49:51;;;;;;;1.67;1.00;;;;;;;8.07;100.00;153432.66;4987299;28;20545;-79
2023/01/04 12:52:41;;;;;;;1.87;0.93;;;;;;;8.04;100.00;153424.91;4983817;28;20573;-79
2023/01/04 12:55:59;;;;;;;2.07;1.17;;;;;;;8.17;99.83;153457.19;4984442;28;20437;-79
2023/01/04 12:59:06;;;;;;;0.90;0.60;;;;;;;8.21;100.00;153468.81;4985242;28;20462;-79
2023/01/04 13:02:17;;;;;;;1.50;0.90;;;;;;;8.33;98.96;153499.91;4986106;28;20949;-88
2023/01/04 13:05:04;;;;;;;1.37;0.77;;;;;;;8.35;99.39;153505.06;4986175;28;20481;-79
2023/01/04 13:07:51;;;;;;;1.87;0.80;;;;;;;8.36;99.53;153506.38;4995179;28;20469;-79
2023/01/04 13:10:38;;;;;;;1.77;0.80;;;;;;;8.40;100.00;153516.69;4982851;28;20438;-78
2023/01/04 13:13:32;;;;;;;2.40;0.60;;;;;;;8.46;99.33;153533.53;4985067;28;20469;-79
2023/01/04 13:16:23;;;;;;;1.77;0.80;;;;;;;8.50;99.28;153543.84;4980543;28;22054;-79
2023/01/04 13:19:12;;;;;;;1.70;0.90;;;;;;;8.50;99.76;153543.84;4983618;28;21046;-79
2023/01/04 13:21:58;;;;;;;1.47;1.10;;;;;;;8.60;97.78;153567.13;4982895;28;20443;-79
2023/01/04 13:24:44;;;;;;;2.20;1.17;;;;;;;8.61;99.06;153569.69;4980535;28;20968;-79
2023/01/04 13:27:29;;;;;;;2.03;1.10;;;;;;;8.62;99.02;153572.28;4992164;28;20433;-79
2023/01/04 13:30:33;;;;;;;7.50;1.30;;;;;;;8.51;100.00;153545.13;4984027;28;20437;-79
2023/01/04 13:33:20;;;;;;;1.60;0.90;;;;;;;8.54;99.71;153554.19;4979642;28;20475;-79
2023/01/04 13:36:10;;;;;;;1.60;1.00;;;;;;;8.58;98.35;153564.53;4979493;28;20555;-78
2023/01/04 13:38:55;;;;;;;1.30;0.70;;;;;;;8.68;99.17;153587.81;4982872;28;20523;-78
2023/01/04 13:41:45;;;;;;;1.80;1.20;;;;;;;8.71;99.19;153596.81;4995601;28;20449;-79
2023/01/04 13:44:48;;;;;;;1.87;0.90;;;;;;;8.72;99.00;153598.13;4981150;28;20521;-78
2023/01/04 13:47:38;;;;;;;1.07;0.73;;;;;;;8.67;99.63;153586.50;4991584;28;20643;-78
2023/01/04 13:50:33;;;;;;;1.60;0.80;;;;;;;8.79;99.03;153616.25;4980569;28;20461;-78
2023/01/04 13:53:20;;;;;;;1.53;0.73;;;;;;;8.84;99.86;153629.19;4989214;28;20536;-79
2023/01/04 13:56:14;;;;;;;1.50;1.10;;;;;;;8.86;99.01;153635.66;4985033;28;21208;-79
2023/01/04 13:59:01;;;;;;;1.87;0.80;;;;;;;8.87;98.45;153636.94;4979390;28;20455;-79